ADDS METAR Data INFO
IDs: Format: Raw Decoded Include TAF

Data at: 1339 UTC 25 Feb 2018

KBKN 251335Z AUTO 00000KT 5SM BR CLR M02/M02 A3009 RMK AO2
KBKN 251315Z AUTO 20004KT 3SM BR CLR M03/M03 A3008 RMK AO2
KBKN 251255Z AUTO 00000KT 6SM BR CLR M03/M03 A3006 RMK AO2
KBKN 251235Z AUTO 00000KT 5SM BR CLR M02/M02 A3006 RMK AO2
KBKN 251215Z AUTO 00000KT 6SM BR CLR M02/M02 A3005 RMK AO2
KBKN 251155Z AUTO 00000KT 5SM BR CLR M03/M03 A3005 RMK AO2
KBKN 251135Z AUTO 09003KT 4SM BR CLR M02/M02 A3005 RMK AO2
KBKN 251115Z AUTO 07004KT 3SM BR CLR M02/M02 A3004 RMK AO2
KBKN 251055Z AUTO 00000KT 7SM CLR M01/M01 A3005 RMK AO2
KBKN 251035Z AUTO 04004KT 4SM BR CLR M02/M02 A3004 RMK AO2
KBKN 251015Z AUTO 00000KT 6SM BR CLR M02/M02 A3004 RMK AO2
KBKN 250955Z AUTO 00000KT 6SM BR CLR M02/M02 A3003 RMK AO2
KBKN 250935Z AUTO 00000KT 6SM BR CLR M02/M01 A3003 RMK AO2
KBKN 250915Z AUTO 00000KT 5SM BR CLR M03/M03 A3002 RMK AO2
KBKN 250855Z AUTO 05004KT 5SM BR CLR M02/M02 A3003 RMK AO2
KBKN 250835Z AUTO 00000KT 6SM BR CLR M02/M02 A3004 RMK AO2
KBKN 250815Z AUTO 00000KT 2SM BR CLR M02/M02 A3004 RMK AO2 VIS 1V5
KBKN 250755Z AUTO 00000KT 8SM CLR M01/M01 A3004 RMK AO2
KBKN 250735Z AUTO 00000KT 7SM CLR M01/M01 A3004 RMK AO2
KBKN 250715Z AUTO 00000KT 8SM CLR M01/M01 A3004 RMK AO2
KBKN 250655Z AUTO 24003KT 10SM CLR M01/M01 A3004 RMK AO2
KBKN 250635Z AUTO 00000KT 10SM CLR M01/M01 A3004 RMK AO2
KBKN 250615Z AUTO 00000KT 10SM CLR M01/M00 A3003 RMK AO2
KBKN 250555Z AUTO 00000KT 8SM CLR M01/M01 A3003 RMK AO2
KBKN 250535Z AUTO 00000KT 10SM CLR M00/M00 A3003 RMK AO2
KBKN 250515Z AUTO 00000KT 10SM CLR M00/M00 A3002 RMK AO2
KBKN 250455Z AUTO 10SM CLR M00/00 A3002 RMK AO2
KBKN 250435Z AUTO 00000KT 10SM CLR 00/00 A3001 RMK AO2
KBKN 250415Z AUTO 00000KT 10SM CLR 01/01 A3000 RMK AO2
KBKN 250355Z AUTO 00000KT 10SM CLR 00/00 A3000 RMK AO2
KBKN 250335Z AUTO 19004KT 10SM CLR 00/00 A3000 RMK AO2
KBKN 250315Z AUTO 00000KT 10SM CLR 01/01 A2999 RMK AO2
KBKN 250255Z AUTO 20004KT 10SM CLR 01/01 A2999 RMK AO2
KBKN 250235Z AUTO 23004KT 10SM CLR 02/01 A2998 RMK AO2
KBKN 250215Z AUTO 24003KT 10SM CLR 02/01 A2998 RMK AO2
KBKN 250155Z AUTO 00000KT 10SM CLR 03/01 A2997 RMK AO2
KBKN 250135Z AUTO 00000KT 10SM CLR 03/01 A2996 RMK AO2
KBKN 250115Z AUTO 27004KT 10SM FEW029 03/01 A2996 RMK AO2
KBKN 250055Z AUTO 29006KT 10SM CLR 04/01 A2996 RMK AO2
KBKN 250035Z AUTO 27008KT 10SM CLR 05/02 A2995 RMK AO2
KBKN 250015Z AUTO 27011KT 10SM CLR 06/02 A2994 RMK AO2 LTG DSNT N
KBKN 242355Z AUTO 28013KT 10SM CLR 07/01 A2993 RMK AO2
KBKN 242335Z AUTO 28014KT 10SM CLR 07/01 A2992 RMK AO2
KBKN 242315Z AUTO 29012G18KT 10SM BKN043 08/02 A2991 RMK AO2
KBKN 242255Z AUTO 27015KT 10SM OVC043 08/02 A2989 RMK AO2
KBKN 242235Z AUTO 28016G21KT 10SM SCT030 OVC042 08/02 A2988 RMK AO2
KBKN 242215Z AUTO 29015KT 10SM SCT029 BKN039 BKN046 08/03 A2987 RMK AO2
KBKN 242155Z AUTO 28019G24KT 10SM SCT027 SCT034 BKN040 08/03 A2986 RMK AO2
KBKN 242135Z AUTO 29016KT 10SM BKN026 BKN031 BKN038 08/04 A2985 RMK AO2
KBKN 242115Z AUTO 29014G20KT 10SM OVC026 07/04 A2985 RMK AO2
KBKN 242055Z AUTO 27018G23KT 10SM BKN024 OVC030 08/04 A2985 RMK AO2
KBKN 242035Z AUTO 26015KT 10SM BKN019 OVC024 07/05 A2984 RMK AO2 LTG DSNT N
KBKN 242015Z AUTO 27012KT 10SM BKN018 OVC024 07/05 A2984 RMK AO2
KBKN 241955Z AUTO 29013KT 10SM BKN017 OVC021 06/05 A2984 RMK AO2
KBKN 241935Z AUTO 28012KT 10SM OVC014 06/05 A2984 RMK AO2
KBKN 241915Z AUTO 28012KT 10SM OVC013 06/06 A2985 RMK AO2
KBKN 241855Z AUTO 25006KT 10SM OVC012 06/06 A2985 RMK AO2
KBKN 241835Z AUTO 23008KT 10SM OVC009 05/05 A2987 RMK AO2
KBKN 241815Z AUTO 25009KT 10SM BKN007 OVC011 05/05 A2988 RMK AO2
KBKN 241755Z AUTO 24008G13KT 10SM OVC006 04/04 A2987 RMK AO2
KBKN 241735Z AUTO 24009KT 10SM OVC006 04/04 A2988 RMK AO2
KBKN 241715Z AUTO 26007G14KT 10SM OVC006 03/03 A2989 RMK AO2
KBKN 241655Z AUTO 26008G13KT 8SM OVC005 03/03 A2988 RMK AO2
KBKN 241635Z AUTO 26007KT 10SM BKN005 OVC029 03/03 A2989 RMK AO2 LTG DSNT NE AND E
KBKN 241615Z AUTO 24004KT 10SM BKN004 BKN029 BKN036 02/02 A2989 RMK AO2 LTG DSNT NE-SE
KBKN 241555Z AUTO 29009KT 3SM -DZ BKN003 BKN028 BKN033 02/02 A2988 RMK AO2 LTG DSNT NE-SE P0021
KBKN 241535Z AUTO 30005KT 1 1/4SM RA BKN003 OVC027 01/01 A2991 RMK AO2 LTG DSNT ALQDS
KBKN 241515Z AUTO 20009KT 1 1/4SM -TSRA OVC003 02/02 A2996 RMK AO2 LTG DSNT ALQDS
KBKN 241455Z AUTO 31005KT 2 1/2SM -DZ OVC003 02/02 A2988 RMK AO2 LTG DSNT SE-SW
KBKN 241435Z AUTO 00000KT 3SM BR OVC003 02/02 A2989 RMK AO2 LTG DSNT S
KBKN 241415Z AUTO 01007KT 3SM BR OVC003 02/02 A2988 RMK AO2
KBKN 241355Z AUTO 01009KT 1 1/4SM BR OVC003 02/02 A2988 RMK AO2
KBKN 241335Z AUTO 02008KT 1 1/4SM BR OVC003 02/02 A2990 RMK AO2
KBKN 241315Z AUTO 02004KT 1 3/4SM BR OVC003 02/02 A2994 RMK AO2
KBKN 241255Z AUTO 35008KT 1 3/4SM BR OVC003 02/02 A2993 RMK AO2
KBKN 241235Z AUTO 34010KT 2 1/2SM BR OVC003 02/02 A2996 RMK AO2
KBKN 241215Z AUTO 33004KT 3SM BR OVC003 02/02 A2999 RMK AO2
KBKN 241155Z AUTO 33003KT 1 3/4SM BR OVC003 02/02 A2998 RMK AO2
KBKN 241135Z AUTO 34004KT 1 1/2SM -DZ OVC002 02/02 A2998 RMK AO2
KBKN 241115Z AUTO 00000KT 1 3/4SM BR OVC003 02/02 A2999 RMK AO2
KBKN 241055Z AUTO 00000KT 1 3/4SM BR OVC003 02/02 A2998 RMK AO2
KBKN 241035Z AUTO 04005KT 3SM BR OVC003 02/02 A2996 RMK AO2
KBKN 241015Z AUTO 04006KT 7SM OVC003 02/02 A2996 RMK AO2
KBKN 240955Z AUTO 03005KT 2SM BR OVC003 02/02 A2996 RMK AO2
KBKN 240935Z AUTO 04005KT 1 1/2SM BR OVC003 02/02 A2996 RMK AO2
KBKN 240915Z AUTO 03005KT 1 3/4SM BR OVC003 02/02 A2998 RMK AO2
KBKN 240855Z AUTO 02007KT 1 1/4SM BR OVC003 02/02 A2999 RMK AO2
KBKN 240835Z AUTO 36007KT 1SM BR OVC003 02/02 A3000 RMK AO2
KBKN 240815Z AUTO 36007KT 1SM BR OVC003 02/02 A3002 RMK AO2
KBKN 240755Z AUTO 35007KT 1SM BR OVC003 02/02 A3004 RMK AO2
KBKN 240735Z AUTO 34007KT 3/4SM -DZ OVC003 02/02 A3004 RMK AO2
KBKN 240715Z AUTO 35004KT 1SM -DZ OVC003 02/02 A3004 RMK AO2
KBKN 240655Z AUTO 34003KT 1 1/4SM BR OVC003 02/02 A3005 RMK AO2
KBKN 240635Z AUTO 02004KT 1 1/2SM -UP OVC003 02/02 A3005 RMK AO2 LTG DSNT N
KBKN 240615Z AUTO 36005KT 2 1/2SM BR OVC004 02/02 A3005 RMK AO2
KBKN 240555Z AUTO 02005KT 4SM BR OVC004 02/02 A3006 RMK AO2
KBKN 240535Z AUTO 03006KT 3SM BR OVC004 02/02 A3006 RMK AO2
KBKN 240515Z AUTO 03007KT 2SM BR OVC003 02/02 A3007 RMK AO2
KBKN 240455Z AUTO 01007KT 1 3/4SM BR OVC003 02/02 A3008 RMK AO2 P0001
KBKN 240435Z AUTO 36008KT 1 1/4SM -DZ OVC003 02/02 A3009 RMK AO2 LTG DSNT N
KBKN 240415Z AUTO 36007KT 1 1/2SM BR OVC004 03/03 A3010 RMK AO2
KBKN 240355Z AUTO 03008KT 1 3/4SM -RA OVC004 03/03 A3010 RMK AO2 P0001
KBKN 240335Z AUTO 02007KT 1 1/4SM -RA OVC004 03/03 A3011 RMK AO2
KBKN 240315Z AUTO 03007KT 1 1/2SM -DZ OVC004 03/03 A3012 RMK AO2
KBKN 240255Z AUTO 04007KT 1 3/4SM -DZ OVC005 03/03 A3012 RMK AO2 P0001
KBKN 240235Z AUTO 04007KT 1 3/4SM -DZ OVC005 03/03 A3012 RMK AO2
KBKN 240215Z AUTO 04009KT 1 3/4SM -DZ OVC004 03/03 A3013 RMK AO2
KBKN 240155Z AUTO 05009KT 1 3/4SM -RA OVC004 03/03 A3013 RMK AO2